Time;durP1;ratioP1;P1;durP2;ratioP2;P2;SDS_P1;SDS_P2;PMS_P1;PMS_P2;Temp;Humidity;BMP_temperature;BMP_pressure;BME280_temperature;BME280_humidity;BME280_pressure;Samples;Min_cycle;Max_cycle;Signal;HPM_P1;HPM_P2
2024/02/22 00:04:55;;;;;;;11.32;8.85;;;;;;;;;;10420244;27;20071;-62
2024/02/22 00:09:54;;;;;;;9.00;7.60;;;;;;;;;;10419736;27;20469;-63
2024/02/22 00:14:52;;;;;;;8.77;7.70;;;;;;;;;;10418931;27;20087;-64
2024/02/22 00:19:50;;;;;;;7.68;6.68;;;;;;;;;;10419680;27;20746;-62
2024/02/22 00:24:50;;;;;;;8.68;7.13;;;;;;;;;;10418588;27;20078;-63
2024/02/22 00:29:48;;;;;;;8.40;7.50;;;;;;;;;;10408765;27;20523;-61
2024/02/22 00:34:46;;;;;;;9.35;7.22;;;;;;;;;;10411082;27;20075;-62
2024/02/22 00:39:45;;;;;;;7.90;7.10;;;;;;;;;;10418630;27;20476;-62
2024/02/22 00:44:45;;;;;;;7.32;6.63;;;;;;;;;;10418349;27;20082;-62
2024/02/22 00:49:43;;;;;;;6.95;6.25;;;;;;;;;;10417629;27;20082;-64
2024/02/22 00:54:42;;;;;;;8.88;7.60;;;;;;;;;;10417170;27;20570;-63
2024/02/22 00:59:40;;;;;;;8.25;7.07;;;;;;;;;;10417714;27;20089;-63
2024/02/22 01:04:40;;;;;;;7.30;6.57;;;;;;;;;;10416016;27;20074;-63
2024/02/22 01:09:38;;;;;;;8.45;6.88;;;;;;;;;;10415114;27;20063;-63
2024/02/22 01:14:36;;;;;;;8.48;6.82;;;;;;;;;;10417304;27;20074;-62
2024/02/22 01:19:34;;;;;;;8.82;6.72;;;;;;;;;;10407304;27;20082;-62
2024/02/22 01:24:34;;;;;;;8.57;7.65;;;;;;;;;;10416427;27;20072;-62
2024/02/22 01:29:32;;;;;;;7.57;6.88;;;;;;;;;;10416780;27;20532;-62
2024/02/22 01:34:31;;;;;;;9.73;7.32;;;;;;;;;;10415231;27;20102;-63
2024/02/22 01:39:29;;;;;;;7.45;6.75;;;;;;;;;;10415094;27;20351;-63
2024/02/22 01:44:29;;;;;;;7.85;6.90;;;;;;;;;;10416254;27;20070;-62
2024/02/22 01:49:27;;;;;;;6.85;6.00;;;;;;;;;;10416063;27;20081;-63
2024/02/22 01:54:26;;;;;;;7.22;6.13;;;;;;;;;;10415755;27;20067;-63
2024/02/22 01:59:24;;;;;;;6.97;6.30;;;;;;;;;;10405491;27;20085;-63
2024/02/22 02:04:24;;;;;;;10.63;6.47;;;;;;;;;;10405495;27;20531;-63
2024/02/22 02:09:22;;;;;;;9.95;7.47;;;;;;;;;;10415320;27;20083;-63
2024/02/22 02:14:21;;;;;;;9.60;8.27;;;;;;;;;;10417456;27;20165;-62
2024/02/22 02:19:20;;;;;;;8.35;6.75;;;;;;;;;;10394945;27;20079;-63
2024/02/22 02:24:27;;;;;;;9.50;8.38;;;;;;;;;;10413656;27;20090;-63
2024/02/22 02:29:26;;;;;;;10.38;7.90;;;;;;;;;;10415150;27;20079;-64
2024/02/22 02:34:24;;;;;;;9.15;7.50;;;;;;;;;;10415443;27;20059;-63
2024/02/22 02:39:23;;;;;;;8.15;7.32;;;;;;;;;;10415189;27;20065;-63
2024/02/22 02:44:21;;;;;;;7.68;6.60;;;;;;;;;;10415068;27;20075;-63
2024/02/22 02:49:21;;;;;;;7.20;6.50;;;;;;;;;;10414762;27;20079;-62
2024/02/22 02:54:19;;;;;;;7.35;6.50;;;;;;;;;;10412057;27;20071;-62
2024/02/22 02:59:17;;;;;;;7.20;6.60;;;;;;;;;;10411977;28;20489;-62
2024/02/22 03:04:16;;;;;;;7.00;6.38;;;;;;;;;;10411298;28;20137;-62
2024/02/22 03:09:15;;;;;;;6.35;5.75;;;;;;;;;;10410711;28;20074;-63
2024/02/22 03:14:15;;;;;;;6.80;6.10;;;;;;;;;;10399664;28;20098;-63
2024/02/22 03:19:13;;;;;;;6.05;5.45;;;;;;;;;;10410731;28;20085;-63
2024/02/22 03:24:11;;;;;;;5.93;5.38;;;;;;;;;;10412039;28;20078;-63
2024/02/22 03:29:11;;;;;;;6.18;5.57;;;;;;;;;;10417542;27;20074;-64
2024/02/22 03:34:09;;;;;;;7.22;5.80;;;;;;;;;;10420765;27;20081;-64
2024/02/22 03:39:11;;;;;;;6.70;5.80;;;;;;;;;;10421024;27;20079;-63
2024/02/22 03:44:14;;;;;;;6.60;6.00;;;;;;;;;;10421015;27;20089;-63
2024/02/22 03:49:13;;;;;;;6.40;5.80;;;;;;;;;;10420461;27;20094;-64
2024/02/22 03:54:11;;;;;;;6.22;5.63;;;;;;;;;;10420680;27;20094;-63
2024/02/22 03:59:11;;;;;;;6.45;5.38;;;;;;;;;;10419558;27;20079;-62
2024/02/22 04:04:09;;;;;;;6.07;5.47;;;;;;;;;;10420408;27;20075;-62
2024/02/22 04:09:07;;;;;;;6.40;5.80;;;;;;;;;;10419976;27;20078;-62
2024/02/22 04:14:06;;;;;;;6.20;5.60;;;;;;;;;;10419285;27;20089;-61
2024/02/22 04:19:05;;;;;;;5.95;5.15;;;;;;;;;;10408389;27;20094;-62
2024/02/22 04:24:04;;;;;;;5.45;4.95;;;;;;;;;;10408800;27;20540;-62
2024/02/22 04:29:03;;;;;;;7.68;4.93;;;;;;;;;;10418646;27;20094;-63
2024/02/22 04:34:01;;;;;;;7.30;6.53;;;;;;;;;;10417968;27;20075;-63
2024/02/22 04:39:01;;;;;;;5.53;5.03;;;;;;;;;;10416379;27;20469;-62
2024/02/22 04:43:59;;;;;;;6.40;5.70;;;;;;;;;;10418550;27;20079;-63
2024/02/22 04:48:59;;;;;;;5.47;4.97;;;;;;;;;;10420171;27;20071;-63
2024/02/22 04:53:57;;;;;;;10.88;7.28;;;;;;;;;;10417971;27;20362;-63
2024/02/22 04:58:57;;;;;;;8.98;7.40;;;;;;;;;;10418081;27;20106;-63
2024/02/22 05:03:55;;;;;;;6.28;5.13;;;;;;;;;;10414165;27;20474;-62
2024/02/22 05:08:54;;;;;;;4.95;4.45;;;;;;;;;;10408848;27;20559;-62
2024/02/22 05:13:53;;;;;;;5.82;4.72;;;;;;;;;;10417180;27;20074;-62
2024/02/22 05:18:53;;;;;;;10.73;5.43;;;;;;;;;;10416796;27;20079;-62
2024/02/22 05:23:51;;;;;;;7.07;5.22;;;;;;;;;;10416929;27;20067;-62
2024/02/22 05:28:50;;;;;;;7.38;4.70;;;;;;;;;;10397355;27;20074;-61
2024/02/22 05:33:48;;;;;;;6.25;5.65;;;;;;;;;;10416965;27;20116;-62
2024/02/22 05:38:48;;;;;;;5.80;5.15;;;;;;;;;;10419356;27;20082;-62
2024/02/22 05:43:46;;;;;;;6.35;5.50;;;;;;;;;;10406527;27;20078;-63
2024/02/22 05:48:45;;;;;;;6.88;6.28;;;;;;;;;;10415578;27;20067;-62
2024/02/22 05:53:43;;;;;;;6.82;6.13;;;;;;;;;;10415217;27;20083;-63
2024/02/22 05:58:43;;;;;;;4.95;4.50;;;;;;;;;;10409240;27;20075;-64
2024/02/22 06:03:41;;;;;;;10.40;7.72;;;;;;;;;;10406991;27;20063;-64
2024/02/22 06:08:42;;;;;;;6.82;6.22;;;;;;;;;;10410763;27;20067;-63
2024/02/22 06:13:40;;;;;;;7.68;6.22;;;;;;;;;;10411303;27;20139;-63
2024/02/22 06:18:40;;;;;;;6.78;6.05;;;;;;;;;;10411465;27;20075;-63
2024/02/22 06:23:38;;;;;;;7.90;6.95;;;;;;;;;;10412436;27;20089;-63
2024/02/22 06:28:38;;;;;;;5.30;4.85;;;;;;;;;;10408900;27;20067;-63
2024/02/22 06:33:38;;;;;;;6.22;5.60;;;;;;;;;;10409214;27;20550;-63
2024/02/22 06:38:45;;;;;;;8.10;7.30;;;;;;;;;;10410182;27;20074;-62
2024/02/22 06:43:44;;;;;;;6.00;5.07;;;;;;;;;;10409951;27;20354;-62
2024/02/22 06:48:44;;;;;;;9.35;5.63;;;;;;;;;;10409955;27;20551;-63
2024/02/22 06:53:44;;;;;;;4.68;4.28;;;;;;;;;;10410279;27;20063;-63
2024/02/22 06:58:42;;;;;;;5.53;5.03;;;;;;;;;;10411495;28;20074;-63
2024/02/22 07:03:40;;;;;;;5.53;4.97;;;;;;;;;;10420012;27;20071;-63
2024/02/22 07:08:39;;;;;;;6.38;5.45;;;;;;;;;;10423913;27;20078;-63
2024/02/22 07:13:38;;;;;;;5.10;4.45;;;;;;;;;;10413270;27;20075;-62
2024/02/22 07:18:36;;;;;;;6.05;4.70;;;;;;;;;;10422567;27;20067;-62
2024/02/22 07:23:35;;;;;;;9.25;4.90;;;;;;;;;;10420796;27;20079;-62
2024/02/22 07:28:34;;;;;;;8.20;5.43;;;;;;;;;;10422409;27;20519;-63
2024/02/22 07:33:34;;;;;;;6.22;5.38;;;;;;;;;;10421186;27;20088;-62
2024/02/22 07:38:33;;;;;;;5.93;5.38;;;;;;;;;;10420352;27;20074;-63
2024/02/22 07:43:31;;;;;;;6.93;5.50;;;;;;;;;;10420069;27;20074;-62
2024/02/22 07:48:30;;;;;;;9.07;5.22;;;;;;;;;;10420624;27;20086;-62
2024/02/22 07:53:33;;;;;;;17.50;12.07;;;;;;;;;;10420366;27;20074;-62
2024/02/22 07:58:33;;;;;;;8.02;5.65;;;;;;;;;;10410589;27;20074;-64
2024/02/22 08:03:31;;;;;;;4.93;4.22;;;;;;;;;;10420281;27;20070;-63
2024/02/22 08:08:31;;;;;;;20.40;16.45;;;;;;;;;;10419586;27;20082;-63
2024/02/22 08:13:29;;;;;;;6.65;5.50;;;;;;;;;;10409690;27;20082;-62
2024/02/22 08:18:28;;;;;;;3.90;3.55;;;;;;;;;;10409686;27;20460;-63
2024/02/22 08:23:26;;;;;;;9.43;5.80;;;;;;;;;;10419175;27;20087;-62
2024/02/22 08:28:27;;;;;;;5.22;4.57;;;;;;;;;;10416071;27;20098;-62
2024/02/22 08:33:26;;;;;;;5.22;4.72;;;;;;;;;;10418559;27;20519;-63
2024/02/22 08:38:25;;;;;;;4.88;4.13;;;;;;;;;;10417687;27;20047;-63
2024/02/22 08:43:25;;;;;;;9.32;8.27;;;;;;;;;;10418466;27;20078;-62
2024/02/22 08:48:25;;;;;;;5.38;4.30;;;;;;;;;;10417413;27;20082;-63
2024/02/22 08:53:24;;;;;;;6.85;5.30;;;;;;;;;;10418282;27;20075;-62
2024/02/22 08:58:22;;;;;;;6.25;5.00;;;;;;;;;;10417436;27;20086;-62
2024/02/22 09:03:22;;;;;;;5.85;4.03;;;;;;;;;;10397941;27;20043;-62
2024/02/22 09:08:21;;;;;;;7.22;4.20;;;;;;;;;;10416790;27;20094;-63
2024/02/22 09:13:19;;;;;;;7.78;3.97;;;;;;;;;;10416551;27;20071;-63
2024/02/22 09:18:18;;;;;;;7.35;3.90;;;;;;;;;;10405916;27;20078;-62
2024/02/22 09:23:19;;;;;;;6.65;3.90;;;;;;;;;;10407085;27;20094;-62
2024/02/22 09:28:18;;;;;;;5.03;3.60;;;;;;;;;;10407284;27;20140;-63
2024/02/22 09:33:16;;;;;;;7.22;4.28;;;;;;;;;;10416474;27;20079;-62
2024/02/22 09:38:14;;;;;;;12.27;8.45;;;;;;;;;;10416722;27;20075;-62
2024/02/22 09:43:15;;;;;;;10.00;6.13;;;;;;;;;;10415967;27;20462;-63
2024/02/22 09:48:13;;;;;;;4.70;3.85;;;;;;;;;;10416953;27;20071;-63
2024/02/22 09:53:12;;;;;;;6.50;4.82;;;;;;;;;;10415156;27;20089;-63
2024/02/22 09:58:10;;;;;;;5.50;5.00;;;;;;;;;;10416453;27;20066;-63
2024/02/22 10:03:10;;;;;;;4.93;3.55;;;;;;;;;;10416462;27;20070;-63
2024/02/22 10:08:09;;;;;;;4.18;3.70;;;;;;;;;;10405330;27;20078;-63
2024/02/22 10:13:07;;;;;;;6.38;4.25;;;;;;;;;;10404941;27;20534;-63
2024/02/22 10:18:07;;;;;;;4.40;4.00;;;;;;;;;;10404838;27;20082;-62
2024/02/22 10:23:08;;;;;;;8.15;3.88;;;;;;;;;;10415099;27;20083;-62
2024/02/22 10:28:08;;;;;;;4.90;4.40;;;;;;;;;;10414631;27;20075;-63
2024/02/22 10:33:09;;;;;;;7.43;4.53;;;;;;;;;;10415171;27;20101;-62
2024/02/22 10:38:11;;;;;;;4.68;3.60;;;;;;;;;;10406298;27;20082;-62
2024/02/22 10:43:11;;;;;;;5.22;4.72;;;;;;;;;;10415411;27;20437;-62
2024/02/22 10:48:09;;;;;;;6.68;4.13;;;;;;;;;;10405123;27;20062;-63
2024/02/22 10:53:12;;;;;;;4.68;4.07;;;;;;;;;;10413827;27;20079;-62
2024/02/22 10:58:11;;;;;;;5.45;4.93;;;;;;;;;;10414229;28;20063;-61
2024/02/22 11:03:11;;;;;;;5.38;3.63;;;;;;;;;;10406522;28;20086;-62
2024/02/22 11:08:19;;;;;;;4.55;3.55;;;;;;;;;;10403962;28;20492;-63
2024/02/22 11:13:17;;;;;;;6.22;4.50;;;;;;;;;;10414174;28;20525;-62
2024/02/22 11:18:22;;;;;;;4.03;3.70;;;;;;;;;;10414017;28;20071;-62
2024/02/22 11:23:23;;;;;;;10.07;4.20;;;;;;;;;;10331144;28;20514;-62
2024/02/22 11:28:21;;;;;;;7.10;6.00;;;;;;;;;;10330296;28;20080;-62
2024/02/22 11:33:22;;;;;;;5.30;4.60;;;;;;;;;;10331011;28;20083;-62
2024/02/22 11:38:22;;;;;;;10.07;5.35;;;;;;;;;;10331241;28;20067;-63
2024/02/22 11:43:24;;;;;;;5.65;4.55;;;;;;;;;;10331269;28;20524;-62
2024/02/22 11:48:23;;;;;;;10.38;6.28;;;;;;;;;;10333421;28;20091;-63
2024/02/22 11:53:22;;;;;;;6.72;4.43;;;;;;;;;;10338520;28;20500;-62
2024/02/22 11:58:21;;;;;;;6.63;4.43;;;;;;;;;;10338222;28;20064;-62
2024/02/22 12:03:19;;;;;;;6.60;5.22;;;;;;;;;;10337143;28;20067;-62
2024/02/22 12:08:19;;;;;;;5.70;4.95;;;;;;;;;;10337472;28;20098;-62
2024/02/22 12:13:18;;;;;;;11.60;6.35;;;;;;;;;;10338335;28;20084;-63
2024/02/22 12:18:17;;;;;;;7.50;4.00;;;;;;;;;;10326884;28;20115;-63
2024/02/22 12:23:15;;;;;;;7.80;4.97;;;;;;;;;;10412448;27;20086;-62
2024/02/22 12:28:14;;;;;;;5.22;4.40;;;;;;;;;;10420754;27;20062;-62
2024/02/22 12:33:21;;;;;;;14.05;10.77;;;;;;;;;;10419628;27;20066;-61
2024/02/22 12:38:20;;;;;;;7.93;4.07;;;;;;;;;;10409936;27;20531;-61
2024/02/22 12:43:18;;;;;;;5.18;3.58;;;;;;;;;;10409622;27;20070;-61
2024/02/22 12:48:22;;;;;;;5.55;4.85;;;;;;;;;;10419495;27;20071;-62
2024/02/22 12:53:20;;;;;;;4.90;4.47;;;;;;;;;;10419454;27;20078;-61
2024/02/22 12:58:18;;;;;;;10.82;6.35;;;;;;;;;;10408027;27;20070;-62
2024/02/22 13:03:17;;;;;;;7.63;6.45;;;;;;;;;;10417668;27;20071;-62
2024/02/22 13:08:16;;;;;;;3.88;3.55;;;;;;;;;;10416401;27;20074;-62
2024/02/22 13:13:27;;;;;;;6.35;3.10;;;;;;;;;;10418388;27;20083;-62
2024/02/22 13:18:26;;;;;;;10.52;6.82;;;;;;;;;;10417965;27;20075;-62
2024/02/22 13:23:26;;;;;;;5.68;3.90;;;;;;;;;;10416293;27;20075;-62
2024/02/22 13:28:24;;;;;;;11.60;7.88;;;;;;;;;;10407708;27;20074;-61
2024/02/22 13:33:22;;;;;;;2.90;2.63;;;;;;;;;;10407347;27;20086;-61
2024/02/22 13:38:21;;;;;;;3.90;3.55;;;;;;;;;;10416861;27;20063;-61
2024/02/22 13:43:21;;;;;;;6.43;3.88;;;;;;;;;;10417369;27;20078;-62
2024/02/22 13:48:19;;;;;;;4.53;3.35;;;;;;;;;;10416720;27;20551;-61
2024/02/22 13:53:18;;;;;;;5.43;3.92;;;;;;;;;;10416531;27;20095;-62
2024/02/22 13:58:18;;;;;;;7.25;4.78;;;;;;;;;;10416560;27;20515;-61
2024/02/22 14:03:17;;;;;;;4.72;4.03;;;;;;;;;;10397979;27;20101;-61
2024/02/22 14:08:15;;;;;;;4.15;3.58;;;;;;;;;;10415471;27;20074;-62
2024/02/22 14:13:14;;;;;;;4.70;3.72;;;;;;;;;;10414964;27;20079;-62
2024/02/22 14:18:12;;;;;;;10.90;8.45;;;;;;;;;;10416218;27;20059;-62
2024/02/22 14:23:12;;;;;;;5.22;4.72;;;;;;;;;;10406388;27;20461;-62
2024/02/22 14:28:12;;;;;;;12.90;6.72;;;;;;;;;;10406851;27;20090;-62
2024/02/22 14:33:10;;;;;;;4.40;3.55;;;;;;;;;;10406705;27;20506;-62
2024/02/22 14:38:09;;;;;;;9.15;8.25;;;;;;;;;;10416141;27;20106;-62
2024/02/22 14:43:09;;;;;;;29.33;23.15;;;;;;;;;;10411254;27;20700;-62
2024/02/22 14:48:11;;;;;;;51.72;35.78;;;;;;;;;;10411324;27;20071;-63
2024/02/22 14:53:09;;;;;;;77.18;59.50;;;;;;;;;;10408633;27;20082;-60
2024/02/22 14:58:09;;;;;;;35.42;25.05;;;;;;;;;;10409686;28;20086;-62
2024/02/22 15:03:07;;;;;;;17.40;9.45;;;;;;;;;;10413187;28;20071;-63
2024/02/22 15:08:06;;;;;;;13.45;5.95;;;;;;;;;;10411566;28;20083;-63
2024/02/22 15:13:05;;;;;;;19.77;15.75;;;;;;;;;;10403829;28;20075;-63
2024/02/22 15:18:06;;;;;;;31.42;28.00;;;;;;;;;;10404634;28;20081;-63
2024/02/22 15:23:05;;;;;;;33.25;21.52;;;;;;;;;;10416493;27;20083;-63
2024/02/22 15:28:03;;;;;;;52.50;31.17;;;;;;;;;;10422564;27;20071;-62
2024/02/22 15:33:02;;;;;;;14.65;13.10;;;;;;;;;;10420881;27;20106;-62
2024/02/22 15:38:02;;;;;;;9.18;5.93;;;;;;;;;;10422196;27;20070;-61
2024/02/22 15:43:01;;;;;;;12.88;7.70;;;;;;;;;;10421375;27;20087;-61
2024/02/22 15:47:59;;;;;;;15.05;9.95;;;;;;;;;;10420657;27;20078;-63
2024/02/22 15:52:57;;;;;;;11.20;7.10;;;;;;;;;;10421445;27;20063;-62
2024/02/22 15:57:59;;;;;;;9.07;5.75;;;;;;;;;;10421146;27;20081;-61
2024/02/22 16:02:57;;;;;;;12.63;6.38;;;;;;;;;;10420195;27;20067;-62
2024/02/22 16:07:56;;;;;;;10.20;7.53;;;;;;;;;;10420095;27;20070;-61
2024/02/22 16:12:54;;;;;;;13.88;7.68;;;;;;;;;;10400503;27;20071;-60
2024/02/22 16:17:54;;;;;;;15.57;10.02;;;;;;;;;;10432284;27;20552;-61
2024/02/22 16:22:53;;;;;;;13.20;8.80;;;;;;;;;;10411767;27;20071;-62
2024/02/22 16:27:51;;;;;;;16.08;8.65;;;;;;;;;;10423370;27;20067;-62
2024/02/22 16:32:50;;;;;;;10.75;5.80;;;;;;;;;;10414905;27;20067;-62
2024/02/22 16:37:49;;;;;;;26.48;15.95;;;;;;;;;;10415314;27;20394;-63
2024/02/22 16:42:49;;;;;;;49.50;33.42;;;;;;;;;;10419356;27;20460;-63
2024/02/22 16:47:47;;;;;;;19.40;14.10;;;;;;;;;;10422445;27;20077;-62
2024/02/22 16:52:46;;;;;;;7.43;5.53;;;;;;;;;;10421592;27;20062;-63
2024/02/22 16:57:46;;;;;;;8.77;5.10;;;;;;;;;;10420500;27;20074;-62
2024/02/22 17:02:45;;;;;;;19.10;9.20;;;;;;;;;;10418488;27;20066;-63
2024/02/22 17:07:43;;;;;;;14.95;8.48;;;;;;;;;;10419573;27;20084;-63
2024/02/22 17:12:43;;;;;;;12.60;8.90;;;;;;;;;;10421504;27;20465;-63
2024/02/22 17:17:46;;;;;;;15.43;11.00;;;;;;;;;;10421873;27;20512;-63
2024/02/22 17:22:44;;;;;;;31.02;14.95;;;;;;;;;;10421096;27;20089;-63
2024/02/22 17:27:42;;;;;;;22.20;15.68;;;;;;;;;;10421584;27;20090;-63
2024/02/22 17:32:41;;;;;;;16.90;11.55;;;;;;;;;;10419126;27;20071;-62
2024/02/22 17:37:40;;;;;;;21.65;15.18;;;;;;;;;;10421318;27;20102;-63
2024/02/22 17:42:40;;;;;;;26.55;21.48;;;;;;;;;;10421729;27;20469;-62
2024/02/22 17:47:38;;;;;;;30.42;22.25;;;;;;;;;;10419615;27;20149;-63
2024/02/22 17:52:36;;;;;;;24.30;17.33;;;;;;;;;;10418404;27;20073;-63
2024/02/22 17:57:36;;;;;;;21.27;16.05;;;;;;;;;;10402921;27;20080;-63
2024/02/22 18:02:34;;;;;;;18.23;16.17;;;;;;;;;;10418784;27;20059;-63
2024/02/22 18:07:33;;;;;;;15.57;11.65;;;;;;;;;;10417771;27;20071;-63
2024/02/22 18:12:31;;;;;;;13.30;9.27;;;;;;;;;;10418776;27;20063;-62
2024/02/22 18:17:31;;;;;;;9.65;7.97;;;;;;;;;;10418328;27;20067;-61
2024/02/22 18:22:29;;;;;;;8.57;6.50;;;;;;;;;;10418423;27;20083;-62
2024/02/22 18:27:27;;;;;;;10.52;7.70;;;;;;;;;;10419715;27;20070;-62
2024/02/22 18:32:27;;;;;;;20.80;12.98;;;;;;;;;;10417978;27;20109;-62
2024/02/22 18:37:27;;;;;;;24.60;14.73;;;;;;;;;;10390158;27;20098;-62
2024/02/22 18:42:26;;;;;;;20.40;12.00;;;;;;;;;;10418078;27;20082;-63
2024/02/22 18:47:24;;;;;;;10.90;7.47;;;;;;;;;;10419374;27;20527;-63
2024/02/22 18:52:22;;;;;;;9.50;6.93;;;;;;;;;;10417847;27;20074;-64
2024/02/22 18:57:22;;;;;;;10.80;8.13;;;;;;;;;;10418665;27;20113;-62
2024/02/22 19:02:20;;;;;;;8.50;6.28;;;;;;;;;;10417178;27;20075;-62
2024/02/22 19:07:21;;;;;;;6.05;4.68;;;;;;;;;;10418801;28;20067;-63
2024/02/22 19:12:19;;;;;;;5.65;4.65;;;;;;;;;;10418812;28;20071;-62
2024/02/22 19:17:19;;;;;;;4.75;4.25;;;;;;;;;;10411298;28;20078;-63
2024/02/22 19:22:17;;;;;;;6.22;5.13;;;;;;;;;;10393162;28;20086;-64
2024/02/22 19:27:18;;;;;;;7.72;5.05;;;;;;;;;;10411711;28;20074;-63
2024/02/22 19:32:16;;;;;;;5.45;4.63;;;;;;;;;;10411503;28;20480;-64
2024/02/22 19:37:16;;;;;;;11.35;9.18;;;;;;;;;;10411407;28;20074;-63
2024/02/22 19:42:16;;;;;;;5.57;4.88;;;;;;;;;;10414233;28;20075;-63
2024/02/22 19:47:14;;;;;;;8.77;7.10;;;;;;;;;;10413935;28;20102;-63
2024/02/22 19:52:12;;;;;;;22.88;15.05;;;;;;;;;;10412350;28;20094;-64
2024/02/22 19:57:12;;;;;;;9.77;7.50;;;;;;;;;;10411083;28;20067;-62
2024/02/22 20:02:10;;;;;;;7.28;6.32;;;;;;;;;;10413176;28;20075;-63
2024/02/22 20:07:09;;;;;;;9.02;6.15;;;;;;;;;;10411064;28;20074;-62
2024/02/22 20:12:09;;;;;;;12.55;8.75;;;;;;;;;;10426594;27;20478;-64
2024/02/22 20:17:11;;;;;;;9.25;7.90;;;;;;;;;;10422299;27;20078;-63
2024/02/22 20:22:09;;;;;;;7.88;6.70;;;;;;;;;;10428136;27;20085;-63
2024/02/22 20:27:08;;;;;;;6.78;6.10;;;;;;;;;;10422198;27;20074;-63
2024/02/22 20:32:06;;;;;;;6.72;6.00;;;;;;;;;;10427268;27;20081;-63
2024/02/22 20:37:06;;;;;;;5.78;5.25;;;;;;;;;;10391541;27;20181;-63
2024/02/22 20:42:06;;;;;;;6.60;5.82;;;;;;;;;;10436314;27;20070;-63
2024/02/22 20:47:05;;;;;;;6.13;5.53;;;;;;;;;;10430844;27;20071;-62
2024/02/22 20:52:03;;;;;;;5.75;5.15;;;;;;;;;;10416247;27;20114;-62
2024/02/22 20:57:04;;;;;;;15.02;11.02;;;;;;;;;;10411164;27;20122;-62
2024/02/22 21:02:02;;;;;;;9.32;6.07;;;;;;;;;;10417070;27;20079;-63
2024/02/22 21:07:00;;;;;;;5.75;5.25;;;;;;;;;;10416320;27;20059;-62
2024/02/22 21:12:02;;;;;;;6.18;5.40;;;;;;;;;;10421931;27;20070;-63
2024/02/22 21:17:01;;;;;;;8.93;7.95;;;;;;;;;;10415222;27;20070;-62
2024/02/22 21:22:00;;;;;;;7.80;7.00;;;;;;;;;;10413825;27;20508;-62
2024/02/22 21:26:58;;;;;;;10.63;8.07;;;;;;;;;;10415305;27;20082;-62
2024/02/22 21:31:56;;;;;;;12.10;9.43;;;;;;;;;;10413907;27;20067;-62
2024/02/22 21:36:56;;;;;;;7.70;5.40;;;;;;;;;;10415414;27;20077;-62
2024/02/22 21:41:54;;;;;;;8.02;6.93;;;;;;;;;;10415043;27;20082;-61
2024/02/22 21:46:53;;;;;;;7.57;5.88;;;;;;;;;;10408967;27;20067;-63
2024/02/22 21:51:51;;;;;;;5.70;5.20;;;;;;;;;;10413708;27;20077;-62
2024/02/22 21:56:50;;;;;;;8.00;6.30;;;;;;;;;;10417719;27;20075;-63
2024/02/22 22:01:49;;;;;;;5.97;5.38;;;;;;;;;;10412984;27;20795;-63
2024/02/22 22:06:47;;;;;;;7.05;6.32;;;;;;;;;;10418969;27;20456;-63
2024/02/22 22:11:45;;;;;;;7.07;6.25;;;;;;;;;;10417919;27;20456;-63
2024/02/22 22:16:45;;;;;;;5.72;5.22;;;;;;;;;;10413895;27;20475;-63
2024/02/22 22:21:45;;;;;;;7.32;6.32;;;;;;;;;;10416082;27;20079;-62
2024/02/22 22:26:43;;;;;;;7.28;6.20;;;;;;;;;;10420245;27;20101;-62
2024/02/22 22:31:44;;;;;;;6.38;5.78;;;;;;;;;;10414215;27;20073;-62
2024/02/22 22:36:44;;;;;;;7.28;6.57;;;;;;;;;;10413135;27;20074;-62
2024/02/22 22:41:42;;;;;;;7.15;6.45;;;;;;;;;;10416009;27;20089;-62
2024/02/22 22:46:41;;;;;;;7.13;6.43;;;;;;;;;;10415993;27;20074;-62
2024/02/22 22:51:39;;;;;;;6.60;6.00;;;;;;;;;;10410333;27;20067;-62
2024/02/22 22:56:39;;;;;;;8.70;7.18;;;;;;;;;;10413929;27;20095;-61
2024/02/22 23:01:37;;;;;;;8.07;7.28;;;;;;;;;;10410593;27;20070;-62
2024/02/22 23:06:35;;;;;;;8.35;7.55;;;;;;;;;;10413495;28;20071;-62
2024/02/22 23:11:33;;;;;;;7.70;7.00;;;;;;;;;;10411999;28;20062;-62
2024/02/22 23:16:33;;;;;;;8.57;7.07;;;;;;;;;;10414952;28;20083;-62
2024/02/22 23:21:34;;;;;;;8.07;7.28;;;;;;;;;;10405113;28;20078;-62
2024/02/22 23:26:32;;;;;;;8.38;7.57;;;;;;;;;;10407143;28;20047;-62
2024/02/22 23:31:31;;;;;;;8.70;7.88;;;;;;;;;;10416113;28;20087;-62
2024/02/22 23:36:31;;;;;;;8.65;7.78;;;;;;;;;;10412597;28;20457;-63
2024/02/22 23:41:29;;;;;;;9.27;8.15;;;;;;;;;;10408275;28;20078;-62
2024/02/22 23:46:28;;;;;;;9.10;8.20;;;;;;;;;;10419262;27;20063;-62
2024/02/22 23:51:26;;;;;;;7.70;7.00;;;;;;;;;;10418096;27;20089;-61
2024/02/22 23:56:26;;;;;;;9.18;8.25;;;;;;;;;;10402217;27;20079;-61
